createdAt,value
2022-09-06T00:01:39.924Z,17.49
2022-09-06T00:04:09.639Z,17.52
2022-09-06T00:06:38.890Z,17.23
2022-09-06T00:09:05.895Z,17.41
2022-09-06T00:11:33.023Z,17.48
2022-09-06T00:14:00.071Z,17.52
2022-09-06T00:16:30.316Z,17.59
2022-09-06T00:18:58.001Z,17.54
2022-09-06T00:21:28.220Z,17.49
2022-09-06T00:23:55.742Z,17.26
2022-09-06T00:26:23.572Z,17.35
2022-09-06T00:28:50.683Z,17.42
2022-09-06T00:31:21.147Z,17.31
2022-09-06T00:33:48.767Z,17.36
2022-09-06T00:36:16.599Z,17.34
2022-09-06T00:38:44.431Z,16.88
2022-09-06T00:41:14.155Z,17.22
2022-09-06T00:43:41.585Z,17.04
2022-09-06T00:46:12.174Z,17.22
2022-09-06T00:48:40.300Z,17.12
2022-09-06T00:51:11.653Z,17.05
2022-09-06T00:53:39.350Z,16.78
2022-09-06T00:56:06.779Z,16.98
2022-09-06T00:58:34.560Z,17.04
2022-09-06T01:01:01.650Z,16.92
2022-09-06T01:03:28.917Z,16.72
2022-09-06T01:06:13.201Z,16.77
2022-09-06T01:08:49.427Z,16.94
2022-09-06T01:11:34.789Z,16.86
2022-09-06T01:14:29.299Z,16.89
2022-09-06T01:17:03.111Z,16.88
2022-09-06T01:19:52.503Z,16.96
2022-09-06T01:22:47.484Z,16.96
2022-09-06T01:25:24.175Z,16.97
2022-09-06T01:27:51.148Z,16.92
2022-09-06T01:30:19.526Z,16.86
2022-09-06T01:33:07.918Z,16.58
2022-09-06T01:35:50.656Z,17.06
2022-09-06T01:38:17.773Z,17.06
2022-09-06T01:40:44.862Z,17.04
2022-09-06T01:43:18.349Z,17.03
2022-09-06T01:46:27.499Z,17.12
2022-09-06T01:49:22.177Z,17.16
2022-09-06T01:52:04.571Z,17.08
2022-09-06T01:55:05.596Z,17.12
2022-09-06T01:57:50.467Z,17.36
2022-09-06T02:00:19.865Z,17.37
2022-09-06T02:03:13.172Z,17.34
2022-09-06T02:06:09.855Z,17.35
2022-09-06T02:08:44.646Z,17.28
2022-09-06T02:11:14.557Z,17.43
2022-09-06T02:13:52.790Z,17.39
2022-09-06T02:16:23.274Z,17.30
2022-09-06T02:18:56.773Z,17.27
2022-09-06T02:21:34.319Z,17.38
2022-09-06T02:24:05.192Z,17.12
2022-09-06T02:26:37.841Z,17.25
2022-09-06T02:29:05.153Z,17.33
2022-09-06T02:31:38.770Z,17.34
2022-09-06T02:34:06.779Z,17.02
2022-09-06T02:36:36.299Z,17.19
2022-09-06T02:39:05.083Z,17.13
2022-09-06T02:41:33.192Z,16.86
2022-09-06T02:44:00.328Z,17.49
2022-09-06T02:46:27.406Z,17.43
2022-09-06T02:48:54.681Z,17.48
2022-09-06T02:51:21.718Z,17.46
2022-09-06T02:53:48.791Z,17.50
2022-09-06T02:56:15.827Z,17.50
2022-09-06T02:58:43.342Z,17.40
2022-09-06T03:01:10.415Z,17.31
2022-09-06T03:03:37.622Z,17.36
2022-09-06T03:06:04.821Z,17.23
2022-09-06T03:08:34.113Z,17.17
2022-09-06T03:11:01.611Z,17.32
2022-09-06T03:13:29.115Z,17.51
2022-09-06T03:15:58.494Z,17.40
2022-09-06T03:18:27.348Z,17.41
2022-09-06T03:20:55.827Z,17.34
2022-09-06T03:23:25.731Z,17.36
2022-09-06T03:25:53.123Z,17.37
2022-09-06T03:28:21.759Z,17.37
2022-09-06T03:30:51.445Z,17.24
2022-09-06T03:33:19.337Z,17.15
2022-09-06T03:36:04.528Z,17.07
2022-09-06T03:38:31.546Z,17.13
2022-09-06T03:40:58.859Z,17.10
2022-09-06T03:43:27.130Z,17.12
2022-09-06T03:45:57.310Z,17.15
2022-09-06T03:48:28.169Z,17.18
2022-09-06T03:50:57.669Z,17.13
2022-09-06T03:53:26.592Z,17.07
2022-09-06T03:55:55.516Z,17.07
2022-09-06T03:58:23.557Z,17.11
2022-09-06T04:01:03.512Z,17.04
2022-09-06T04:03:31.134Z,17.10
2022-09-06T04:05:58.344Z,17.04
2022-09-06T04:08:26.139Z,16.89
2022-09-06T04:10:54.909Z,17.11
2022-09-06T04:13:23.261Z,16.96
2022-09-06T04:15:50.838Z,17.25
2022-09-06T04:18:18.485Z,17.05
2022-09-06T04:20:48.898Z,17.02
2022-09-06T04:23:16.771Z,16.98
2022-09-06T04:25:47.972Z,16.95
2022-09-06T04:28:18.165Z,16.78
2022-09-06T04:30:46.093Z,17.02
2022-09-06T04:33:13.111Z,16.86
2022-09-06T04:35:40.115Z,16.63
2022-09-06T04:38:07.182Z,16.58
2022-09-06T04:40:34.183Z,16.64
2022-09-06T04:43:01.216Z,16.61
2022-09-06T04:45:28.281Z,16.51
2022-09-06T04:47:55.491Z,16.55
2022-09-06T04:50:22.517Z,16.41
2022-09-06T04:52:49.558Z,16.39
2022-09-06T04:55:16.714Z,16.59
2022-09-06T04:57:47.470Z,16.32
2022-09-06T05:00:16.909Z,16.41
2022-09-06T05:02:45.058Z,16.41
2022-09-06T05:05:12.166Z,16.25
2022-09-06T05:07:39.187Z,16.31
2022-09-06T05:10:06.385Z,16.03
2022-09-06T05:12:33.471Z,16.13
2022-09-06T05:15:00.481Z,16.19
2022-09-06T05:17:27.499Z,16.25
2022-09-06T05:19:54.489Z,16.38
2022-09-06T05:22:21.643Z,16.19
2022-09-06T05:24:48.673Z,16.29
2022-09-06T05:27:15.839Z,16.27
2022-09-06T05:29:42.917Z,16.20
2022-09-06T05:32:09.929Z,16.34
2022-09-06T05:34:36.979Z,16.42
2022-09-06T05:37:04.272Z,16.48
2022-09-06T05:39:31.562Z,16.53
2022-09-06T05:41:58.792Z,16.49
2022-09-06T05:44:25.938Z,16.52
2022-09-06T05:46:53.550Z,16.64
2022-09-06T05:49:20.688Z,16.69
2022-09-06T05:51:51.960Z,16.74
2022-09-06T05:54:19.038Z,16.53
2022-09-06T05:56:46.063Z,16.83
2022-09-06T05:59:13.387Z,16.78
2022-09-06T06:01:51.654Z,16.99
2022-09-06T06:04:20.183Z,17.13
2022-09-06T06:06:47.383Z,17.21
2022-09-06T06:09:14.668Z,17.29
2022-09-06T06:11:42.078Z,17.48
2022-09-06T06:14:09.299Z,17.52
2022-09-06T06:16:36.682Z,17.57
2022-09-06T06:19:03.811Z,17.63
2022-09-06T06:21:33.107Z,17.75
2022-09-06T06:24:02.789Z,17.71
2022-09-06T06:26:35.601Z,17.92
2022-09-06T06:29:03.567Z,17.95
2022-09-06T06:31:32.001Z,18.07
2022-09-06T06:34:02.737Z,18.20
2022-09-06T06:36:31.728Z,18.33
2022-09-06T06:38:58.834Z,18.42
2022-09-06T06:41:28.907Z,18.56
2022-09-06T06:43:58.672Z,18.75
2022-09-06T06:46:31.478Z,18.69
2022-09-06T06:48:58.588Z,18.63
2022-09-06T06:51:32.539Z,18.86
2022-09-06T06:53:59.949Z,18.97
2022-09-06T06:56:29.669Z,19.13
2022-09-06T06:58:59.583Z,19.27
2022-09-06T07:01:28.998Z,19.33
2022-09-06T07:03:56.561Z,19.21
2022-09-06T07:09:11.868Z,19.67
2022-09-06T07:11:38.950Z,19.71
2022-09-06T07:14:06.012Z,19.77
2022-09-06T07:16:33.094Z,19.65
2022-09-06T07:19:00.345Z,19.94
2022-09-06T07:21:43.133Z,20.16
2022-09-06T07:24:10.650Z,20.16
2022-09-06T07:26:39.864Z,20.29
2022-09-06T07:29:08.460Z,20.30
2022-09-06T07:34:27.522Z,20.94
2022-09-06T07:36:56.229Z,21.11
2022-09-06T07:39:23.739Z,21.28
2022-09-06T07:41:50.842Z,21.35
2022-09-06T07:44:17.956Z,21.36
2022-09-06T07:46:45.155Z,21.30
2022-09-06T07:49:12.318Z,21.40
2022-09-06T07:51:39.340Z,21.56
2022-09-06T07:54:29.294Z,21.70
2022-09-06T07:56:54.001Z,21.71
2022-09-06T07:59:21.038Z,21.90
2022-09-06T08:01:48.902Z,21.74
2022-09-06T08:04:16.265Z,21.89
2022-09-06T08:09:33.680Z,22.10
2022-09-06T08:12:06.551Z,22.42
2022-09-06T08:14:34.588Z,22.43
2022-09-06T08:17:02.391Z,22.75
2022-09-06T08:19:29.443Z,23.01
2022-09-06T08:21:56.677Z,23.04
2022-09-06T08:24:23.704Z,23.25
2022-09-06T08:26:50.809Z,23.24
2022-09-06T08:29:19.842Z,23.60
2022-09-06T08:31:47.454Z,23.49
2022-09-06T08:34:15.193Z,23.82
2022-09-06T08:36:43.239Z,23.96
2022-09-06T08:39:11.114Z,24.05
2022-09-06T08:42:05.187Z,24.14
2022-09-06T08:47:21.544Z,24.38
2022-09-06T08:49:56.234Z,24.40
2022-09-06T08:52:49.324Z,24.56
2022-09-06T08:55:22.399Z,24.58
2022-09-06T08:58:14.357Z,24.60
2022-09-06T09:00:46.908Z,24.67
2022-09-06T09:03:19.088Z,24.78
2022-09-06T09:05:51.891Z,25.06
2022-09-06T09:08:30.257Z,25.23
2022-09-06T09:11:15.260Z,25.00
2022-09-06T09:13:51.326Z,25.32
2022-09-06T09:16:19.628Z,25.11
2022-09-06T09:18:50.473Z,25.44
2022-09-06T09:21:24.700Z,25.44
2022-09-06T09:23:56.406Z,25.43
2022-09-06T09:26:26.766Z,25.50
2022-09-06T09:29:09.321Z,25.59
2022-09-06T09:31:51.331Z,25.56
2022-09-06T09:34:39.632Z,25.55
2022-09-06T09:40:04.765Z,25.66
2022-09-06T09:42:35.970Z,25.97
2022-09-06T09:45:22.836Z,26.01
2022-09-06T09:47:49.908Z,25.96
2022-09-06T09:50:32.386Z,25.95
2022-09-06T09:53:15.291Z,26.17
2022-09-06T09:55:43.512Z,26.28
2022-09-06T09:58:26.947Z,26.36
2022-09-06T10:01:30.617Z,26.42
2022-09-06T10:09:46.180Z,26.61
2022-09-06T10:12:19.064Z,26.88
2022-09-06T10:14:49.817Z,26.76
2022-09-06T10:17:48.668Z,26.92
2022-09-06T10:20:16.436Z,26.97
2022-09-06T10:22:49.243Z,26.96
2022-09-06T10:25:38.095Z,26.79
2022-09-06T10:28:22.297Z,26.82
2022-09-06T10:31:10.053Z,26.64
2022-09-06T10:33:40.015Z,26.65
2022-09-06T10:36:07.696Z,26.75
2022-09-06T10:39:04.210Z,26.95
2022-09-06T10:41:40.825Z,27.06
2022-09-06T10:44:26.902Z,27.17
2022-09-06T10:47:01.278Z,26.90
2022-09-06T10:49:28.589Z,26.92
2022-09-06T10:52:02.166Z,26.96
2022-09-06T10:54:32.803Z,26.78
2022-09-06T10:57:05.677Z,26.79
2022-09-06T10:59:43.256Z,26.89
2022-09-06T11:02:39.195Z,27.06
2022-09-06T11:10:51.575Z,27.22
2022-09-06T11:13:20.580Z,27.44
2022-09-06T11:16:07.981Z,27.32
2022-09-06T11:18:41.454Z,27.36
2022-09-06T11:21:30.176Z,27.56
2022-09-06T11:24:13.935Z,27.69
2022-09-06T11:26:46.971Z,27.74
2022-09-06T11:29:23.503Z,27.87
2022-09-06T11:32:17.694Z,27.86
2022-09-06T11:34:57.665Z,27.97
2022-09-06T11:37:32.738Z,27.95
2022-09-06T11:40:26.837Z,27.92
2022-09-06T11:42:55.052Z,28.18
2022-09-06T11:45:44.429Z,28.35
2022-09-06T11:48:23.883Z,28.25
2022-09-06T11:50:53.636Z,28.31
2022-09-06T11:53:24.040Z,28.15
2022-09-06T11:56:11.672Z,28.06
2022-09-06T11:58:41.432Z,28.09
2022-09-06T12:01:18.742Z,27.95
2022-09-06T12:04:04.945Z,28.08
2022-09-06T12:07:03.527Z,28.22
2022-09-06T12:09:30.548Z,28.39
2022-09-06T12:11:59.494Z,28.70
2022-09-06T12:14:29.585Z,28.57
2022-09-06T12:17:00.336Z,28.78
2022-09-06T12:19:46.176Z,28.85
2022-09-06T12:22:32.680Z,28.92
2022-09-06T12:25:00.504Z,29.18
2022-09-06T12:27:37.677Z,28.98
2022-09-06T12:30:11.719Z,28.97
2022-09-06T12:32:50.079Z,29.01
2022-09-06T12:38:17.063Z,29.17
2022-09-06T12:40:47.962Z,29.00
2022-09-06T12:43:17.040Z,28.90
2022-09-06T12:45:50.726Z,28.54
2022-09-06T12:48:32.209Z,28.73
2022-09-06T12:51:06.983Z,28.92
2022-09-06T12:53:34.906Z,28.97
2022-09-06T12:56:12.640Z,28.77
2022-09-06T12:58:40.770Z,28.62
2022-09-06T13:01:22.807Z,28.55
2022-09-06T13:04:02.774Z,28.39
2022-09-06T13:06:36.461Z,28.32
2022-09-06T13:09:05.004Z,28.13
2022-09-06T13:11:38.535Z,28.02
2022-09-06T13:14:16.900Z,27.95
2022-09-06T13:16:47.393Z,27.77
2022-09-06T13:19:32.513Z,27.33
2022-09-06T13:22:00.259Z,27.72
2022-09-06T13:24:46.371Z,27.70
2022-09-06T13:27:25.415Z,27.51
2022-09-06T13:30:32.527Z,27.63
2022-09-06T13:33:00.297Z,27.42
2022-09-06T13:35:30.875Z,27.59
2022-09-06T13:38:35.475Z,27.51
2022-09-06T13:41:13.527Z,27.48
2022-09-06T13:43:45.631Z,27.56
2022-09-06T13:46:12.927Z,27.48
2022-09-06T13:48:40.426Z,27.22
2022-09-06T13:51:08.046Z,27.37
2022-09-06T13:53:35.643Z,27.40
2022-09-06T13:56:03.387Z,27.45
2022-09-06T13:58:30.533Z,27.52
2022-09-06T14:00:58.425Z,27.50
2022-09-06T14:03:31.084Z,27.45
2022-09-06T14:06:00.146Z,27.52
2022-09-06T14:08:43.430Z,27.45
2022-09-06T14:11:15.360Z,27.38
2022-09-06T14:13:42.438Z,27.38
2022-09-06T14:16:09.506Z,27.31
2022-09-06T14:18:36.615Z,27.58
2022-09-06T14:21:05.361Z,27.68
2022-09-06T14:23:33.078Z,27.84
2022-09-06T14:26:02.440Z,27.99
2022-09-06T14:28:32.287Z,28.02
2022-09-06T14:31:13.200Z,27.84
2022-09-06T14:33:40.333Z,28.06
2022-09-06T14:36:09.833Z,28.19
2022-09-06T14:38:39.012Z,27.96
2022-09-06T14:41:07.243Z,28.06
2022-09-06T14:43:35.357Z,28.04
2022-09-06T14:46:11.061Z,28.32
2022-09-06T14:48:42.147Z,28.17
2022-09-06T14:51:14.228Z,28.31
2022-09-06T14:53:43.506Z,28.31
2022-09-06T14:56:11.946Z,28.31
2022-09-06T14:58:40.751Z,28.30
2022-09-06T15:01:13.035Z,28.56
2022-09-06T15:03:41.233Z,28.64
2022-09-06T15:06:09.513Z,28.52
2022-09-06T15:08:37.717Z,28.62
2022-09-06T15:11:07.995Z,28.77
2022-09-06T15:13:38.946Z,28.63
2022-09-06T15:16:08.248Z,28.73
2022-09-06T15:18:35.807Z,28.83
2022-09-06T15:21:10.961Z,28.66
2022-09-06T15:23:39.474Z,28.71
2022-09-06T15:26:08.259Z,28.74
2022-09-06T15:28:40.349Z,28.54
2022-09-06T15:31:08.465Z,28.51
2022-09-06T15:33:37.209Z,28.64
2022-09-06T15:36:06.461Z,28.78
2022-09-06T15:38:41.230Z,28.97
2022-09-06T15:41:14.211Z,29.18
2022-09-06T15:43:44.038Z,29.41
2022-09-06T15:46:11.157Z,30.25
2022-09-06T15:48:44.031Z,30.96
2022-09-06T15:51:13.571Z,31.66
2022-09-06T15:53:40.658Z,32.33
2022-09-06T15:56:09.858Z,32.68
2022-09-06T15:58:36.885Z,33.17
2022-09-06T16:01:05.935Z,33.24
2022-09-06T16:03:43.304Z,33.03
2022-09-06T16:06:27.204Z,33.06
2022-09-06T16:09:07.414Z,33.18
2022-09-06T16:11:36.670Z,33.78
2022-09-06T16:14:05.096Z,33.76
2022-09-06T16:16:33.120Z,34.07
2022-09-06T16:19:00.437Z,34.26
2022-09-06T16:21:31.407Z,34.21
2022-09-06T16:24:01.270Z,33.96
2022-09-06T16:26:34.561Z,34.65
2022-09-06T16:29:02.638Z,35.26
2022-09-06T16:31:30.024Z,35.63
2022-09-06T16:33:57.898Z,34.37
2022-09-06T16:36:26.359Z,34.69
2022-09-06T16:38:54.783Z,35.28
2022-09-06T16:41:28.967Z,35.07
2022-09-06T16:43:56.432Z,35.30
2022-09-06T16:46:25.443Z,35.55
2022-09-06T16:48:54.116Z,35.57
2022-09-06T16:51:22.323Z,35.96
2022-09-06T16:53:49.948Z,35.92
2022-09-06T16:56:19.933Z,35.85
2022-09-06T16:58:53.492Z,35.37
2022-09-06T17:01:21.085Z,35.10
2022-09-06T17:03:48.626Z,35.09
2022-09-06T17:06:16.309Z,34.32
2022-09-06T17:08:44.289Z,32.64
2022-09-06T17:11:16.630Z,31.46
2022-09-06T17:13:45.123Z,30.55
2022-09-06T17:16:31.086Z,29.90
2022-09-06T17:19:01.130Z,29.38
2022-09-06T17:21:29.279Z,28.99
2022-09-06T17:24:04.517Z,28.76
2022-09-06T17:26:34.291Z,28.50
2022-09-06T17:29:01.728Z,28.30
2022-09-06T17:31:29.288Z,27.91
2022-09-06T17:33:56.344Z,27.90
2022-09-06T17:36:25.776Z,27.65
2022-09-06T17:38:54.082Z,27.41
2022-09-06T17:41:27.925Z,26.93
2022-09-06T17:43:55.691Z,26.67
2022-09-06T17:46:28.514Z,26.56
2022-09-06T17:48:56.937Z,26.44
2022-09-06T17:51:25.492Z,26.36
2022-09-06T17:53:53.308Z,26.26
2022-09-06T17:56:21.094Z,26.08
2022-09-06T17:58:56.574Z,25.87
2022-09-06T18:01:26.123Z,25.83
2022-09-06T18:03:53.172Z,25.69
2022-09-06T18:06:22.825Z,25.50
2022-09-06T18:08:52.432Z,25.52
2022-09-06T18:11:24.905Z,25.37
2022-09-06T18:13:56.024Z,25.27
2022-09-06T18:16:23.666Z,25.04
2022-09-06T18:18:52.663Z,25.12
2022-09-06T18:21:20.822Z,25.06
2022-09-06T18:23:48.057Z,24.91
2022-09-06T18:26:16.820Z,24.78
2022-09-06T18:28:44.160Z,24.49
2022-09-06T18:31:14.125Z,24.74
2022-09-06T18:33:42.557Z,24.66
2022-09-06T18:36:11.360Z,24.65
2022-09-06T18:38:39.992Z,24.54
2022-09-06T18:41:09.034Z,24.46
2022-09-06T18:43:42.405Z,24.25
2022-09-06T18:46:12.650Z,23.97
2022-09-06T18:48:40.618Z,24.20
2022-09-06T18:51:12.899Z,24.08
2022-09-06T18:53:44.796Z,24.00
2022-09-06T18:56:13.948Z,23.78
2022-09-06T18:58:42.067Z,23.68
2022-09-06T19:01:14.760Z,23.67
2022-09-06T19:03:42.773Z,23.83
2022-09-06T19:06:11.428Z,23.74
2022-09-06T19:08:38.945Z,23.60
2022-09-06T19:11:12.248Z,23.52
2022-09-06T19:13:44.373Z,23.39
2022-09-06T19:16:13.564Z,23.47
2022-09-06T19:18:41.816Z,23.45
2022-09-06T19:21:12.019Z,23.39
2022-09-06T19:23:41.769Z,23.28
2022-09-06T19:26:20.409Z,23.29
2022-09-06T19:28:48.650Z,23.05
2022-09-06T19:31:16.048Z,22.97
2022-09-06T19:33:45.020Z,22.98
2022-09-06T19:36:13.144Z,22.88
2022-09-06T19:41:29.981Z,22.73
2022-09-06T19:43:58.207Z,22.72
2022-09-06T19:46:25.947Z,22.75
2022-09-06T19:48:55.884Z,22.71
2022-09-06T19:51:23.690Z,22.67
2022-09-06T19:54:00.001Z,22.45
2022-09-06T19:56:33.241Z,22.57
2022-09-06T19:59:03.222Z,22.41
2022-09-06T20:01:32.555Z,22.23
2022-09-06T20:04:02.821Z,22.09
2022-09-06T20:06:31.223Z,22.06
2022-09-06T20:08:59.928Z,22.23
2022-09-06T20:11:29.710Z,22.30
2022-09-06T20:13:57.127Z,22.10
2022-09-06T20:16:24.948Z,22.01
2022-09-06T20:18:54.268Z,21.99
2022-09-06T20:21:21.768Z,22.07
2022-09-06T20:23:53.400Z,22.09
2022-09-06T20:26:23.742Z,21.99
2022-09-06T20:28:55.825Z,21.69
2022-09-06T20:31:23.124Z,21.91
2022-09-06T20:33:50.239Z,21.80
2022-09-06T20:36:18.794Z,21.72
2022-09-06T20:38:47.490Z,21.65
2022-09-06T20:41:18.219Z,21.67
2022-09-06T20:43:46.449Z,21.50
2022-09-06T20:46:18.473Z,21.60
2022-09-06T20:48:46.470Z,21.56
2022-09-06T20:51:18.587Z,21.20
2022-09-06T20:53:48.071Z,21.45
2022-09-06T20:56:17.785Z,21.30
2022-09-06T20:58:50.372Z,21.24
2022-09-06T21:01:22.555Z,21.23
2022-09-06T21:03:52.294Z,21.24
2022-09-06T21:06:20.800Z,21.32
2022-09-06T21:08:48.775Z,21.17
2022-09-06T21:11:16.081Z,21.13
2022-09-06T21:13:43.695Z,21.18
2022-09-06T21:16:11.019Z,21.34
2022-09-06T21:18:38.277Z,21.37
2022-09-06T21:21:07.782Z,21.27
2022-09-06T21:23:37.323Z,21.31
2022-09-06T21:26:07.539Z,21.29
2022-09-06T21:28:36.942Z,21.32
2022-09-06T21:31:12.000Z,21.30
2022-09-06T21:33:41.259Z,21.20
2022-09-06T21:36:11.219Z,21.04
2022-09-06T21:38:43.662Z,21.16
2022-09-06T21:41:12.105Z,21.11
2022-09-06T21:43:39.711Z,21.04
2022-09-06T21:46:11.322Z,20.96
2022-09-06T21:48:39.604Z,20.95
2022-09-06T21:51:08.107Z,21.01
2022-09-06T21:53:36.383Z,20.98
2022-09-06T21:56:04.891Z,21.02
2022-09-06T21:58:32.822Z,21.01
2022-09-06T22:01:01.838Z,20.97
2022-09-06T22:03:31.677Z,20.90
2022-09-06T22:05:58.766Z,20.84
2022-09-06T22:08:26.041Z,20.85
2022-09-06T22:10:53.194Z,20.92
2022-09-06T22:13:20.478Z,20.95
2022-09-06T22:15:47.558Z,20.91
2022-09-06T22:18:14.652Z,20.83
2022-09-06T22:20:41.775Z,20.71
2022-09-06T22:23:09.865Z,20.86
2022-09-06T22:25:36.978Z,20.85
2022-09-06T22:28:04.102Z,20.75
2022-09-06T22:30:31.174Z,20.69
2022-09-06T22:32:58.292Z,20.53
2022-09-06T22:35:25.379Z,20.54
2022-09-06T22:37:52.406Z,20.17
2022-09-06T22:40:19.423Z,20.54
2022-09-06T22:42:46.474Z,20.51
2022-09-06T22:45:13.500Z,20.42
2022-09-06T22:47:40.723Z,20.48
2022-09-06T22:50:08.392Z,20.40
2022-09-06T22:52:35.440Z,20.25
2022-09-06T22:55:02.753Z,20.36
2022-09-06T22:57:29.785Z,20.32
2022-09-06T22:59:56.872Z,20.23
2022-09-06T23:02:24.029Z,20.27
2022-09-06T23:04:51.417Z,20.26
2022-09-06T23:07:18.518Z,20.32
2022-09-06T23:09:45.538Z,20.12
2022-09-06T23:12:12.658Z,20.33
2022-09-06T23:14:39.690Z,20.29
2022-09-06T23:17:06.790Z,20.24
2022-09-06T23:19:33.823Z,20.18
2022-09-06T23:22:00.898Z,20.20
2022-09-06T23:24:28.192Z,20.18
2022-09-06T23:26:55.639Z,20.02
2022-09-06T23:29:23.077Z,20.30
2022-09-06T23:31:50.223Z,20.19
2022-09-06T23:34:17.381Z,20.13
2022-09-06T23:36:45.224Z,19.96
2022-09-06T23:39:12.337Z,20.05
2022-09-06T23:41:39.376Z,20.14
2022-09-06T23:44:06.704Z,20.14
2022-09-06T23:46:33.812Z,20.21
2022-09-06T23:49:00.902Z,20.30
2022-09-06T23:51:28.005Z,20.23
2022-09-06T23:53:55.065Z,19.93
2022-09-06T23:56:22.369Z,20.13
2022-09-06T23:58:49.464Z,20.07
